Time;durP1;ratioP1;P1;durP2;ratioP2;P2;SDS_P1;SDS_P2;PMS_P1;PMS_P2;Temp;Humidity;BMP_temperature;BMP_pressure;BME280_temperature;BME280_humidity;BME280_pressure;Samples;Min_cycle;Max_cycle;Signal;HPM_P1;HPM_P2
2023/10/02 00:00:02;;;;;;;14.77;6.40;;;12.10;1.00;;;;;;5020881;28;20466;-82
2023/10/02 00:02:51;;;;;;;14.23;5.90;;;12.10;1.00;;;;;;5025250;28;20409;-82
2023/10/02 00:05:40;;;;;;;16.50;6.87;;;12.10;1.00;;;;;;5014950;28;20408;-81
2023/10/02 00:08:25;;;;;;;18.30;6.00;;;12.00;1.00;;;;;;5019239;28;20459;-82
2023/10/02 00:14:18;;;;;;;15.67;6.40;;;12.00;1.00;;;;;;5014187;28;20513;-82
2023/10/02 00:16:58;;;;;;;14.33;6.40;;;12.00;1.00;;;;;;5018779;28;20435;-83
2023/10/02 00:19:57;;;;;;;16.70;5.87;;;12.00;1.00;;;;;;5010000;28;21005;-82
2023/10/02 00:22:35;;;;;;;17.73;6.10;;;12.00;1.00;;;;;;5033688;28;20378;-82
2023/10/02 00:25:17;;;;;;;17.70;6.40;;;11.90;1.00;;;;;;5023860;28;20784;-82
2023/10/02 00:27:46;;;;;;;18.87;6.93;;;11.90;1.00;;;;;;5011064;28;20812;-83
2023/10/02 00:30:51;;;;;;;18.83;6.50;;;11.90;1.00;;;;;;5015534;28;20432;-81
2023/10/02 00:33:38;;;;;;;15.17;6.17;;;11.90;1.00;;;;;;5011103;28;20419;-82
2023/10/02 00:36:20;;;;;;;22.10;6.87;;;11.80;1.00;;;;;;5020646;28;20417;-82
2023/10/02 00:38:50;;;;;;;12.10;5.87;;;11.80;1.00;;;;;;5032436;28;20811;-82
2023/10/02 00:42:10;;;;;;;18.23;5.93;;;12.30;1.00;;;;;;5011459;28;20930;-82
2023/10/02 00:44:57;;;;;;;13.30;6.43;;;11.80;1.00;;;;;;5012927;28;20468;-82
2023/10/02 00:47:41;;;;;;;22.10;6.83;;;11.70;1.00;;;;;;5012215;28;20554;-82
2023/10/02 00:50:19;;;;;;;14.60;6.00;;;11.70;1.00;;;;;;5014578;28;20482;-82
2023/10/02 00:53:00;;;;;;;20.20;7.10;;;11.70;1.00;;;;;;5014014;28;20430;-82
2023/10/02 00:55:51;;;;;;;14.80;5.63;;;11.70;1.00;;;;;;5012160;28;20414;-82
2023/10/02 00:58:20;;;;;;;15.50;6.40;;;11.70;1.00;;;;;;5027299;28;20467;-82
2023/10/02 01:01:05;;;;;;;15.17;6.63;;;11.70;1.00;;;;;;5010567;28;20482;-82
2023/10/02 01:04:07;;;;;;;17.50;7.57;;;11.70;1.00;;;;;;5023693;28;20464;-82
2023/10/02 01:06:54;;;;;;;14.63;6.03;;;11.70;1.00;;;;;;5009956;28;20438;-82
2023/10/02 01:09:36;;;;;;;15.13;6.63;;;11.60;1.00;;;;;;5010026;28;20515;-81
2023/10/02 01:12:03;;;;;;;15.37;6.80;;;11.60;1.00;;;;;;5013944;28;20408;-82
2023/10/02 01:14:51;;;;;;;19.23;7.30;;;11.60;1.00;;;;;;5028054;28;20435;-82
2023/10/02 01:17:21;;;;;;;11.60;5.83;;;11.60;1.00;;;;;;5017605;28;20526;-82
2023/10/02 01:19:57;;;;;;;13.80;6.00;;;11.50;1.00;;;;;;5004065;28;20490;-81
2023/10/02 01:22:52;;;;;;;15.83;6.87;;;11.50;1.00;;;;;;5023055;28;20431;-82
2023/10/02 01:25:23;;;;;;;15.27;6.10;;;11.50;1.00;;;;;;4994118;28;20516;-82
2023/10/02 01:27:53;;;;;;;16.40;6.13;;;11.40;1.00;;;;;;5008079;28;20517;-82
2023/10/02 01:30:21;;;;;;;18.43;6.53;;;11.40;1.00;;;;;;5011095;28;20942;-82
2023/10/02 01:35:50;;;;;;;20.87;6.97;;;11.40;1.00;;;;;;5012569;28;20504;-82
2023/10/02 01:38:26;;;;;;;16.07;6.40;;;11.40;1.00;;;;;;5011945;28;20425;-82
2023/10/02 01:41:06;;;;;;;17.00;7.53;;;11.40;1.00;;;;;;5007566;28;20426;-83
2023/10/02 01:43:52;;;;;;;15.87;7.30;;;11.40;1.00;;;;;;5030487;28;20545;-83
2023/10/02 01:46:56;;;;;;;14.73;7.07;;;11.30;1.00;;;;;;5018373;28;20550;-83
2023/10/02 01:49:26;;;;;;;15.97;7.80;;;11.30;1.00;;;;;;5013224;28;20435;-83
2023/10/02 01:52:14;;;;;;;13.50;6.53;;;11.60;1.00;;;;;;5012287;28;20432;-83
2023/10/02 01:54:51;;;;;;;23.33;6.60;;;11.30;1.00;;;;;;5013133;28;20449;-83
2023/10/02 01:57:24;;;;;;;20.03;6.90;;;11.30;1.00;;;;;;5023559;28;20437;-82
2023/10/02 01:59:50;;;;;;;14.03;6.10;;;11.30;1.00;;;;;;5009082;28;20445;-83
2023/10/02 02:02:20;;;;;;;14.83;5.87;;;11.50;1.00;;;;;;5012783;28;20395;-83
2023/10/02 02:05:14;;;;;;;16.60;6.73;;;11.30;1.00;;;;;;5009851;28;20539;-82
2023/10/02 02:07:46;;;;;;;16.03;5.83;;;11.30;1.00;;;;;;5010747;28;20825;-82
2023/10/02 02:10:14;;;;;;;14.00;6.60;;;12.00;1.00;;;;;;5011741;28;20506;-82
2023/10/02 02:12:55;;;;;;;12.60;5.80;;;11.30;1.00;;;;;;5011508;28;20560;-82
2023/10/02 02:18:53;;;;;;;22.23;6.20;;;11.30;1.00;;;;;;5012823;28;20401;-82
2023/10/02 02:21:24;;;;;;;18.27;6.47;;;11.20;1.00;;;;;;5017784;28;20438;-82
2023/10/02 02:24:11;;;;;;;11.23;5.50;;;11.20;1.00;;;;;;5019765;28;20451;-82
2023/10/02 02:26:57;;;;;;;11.53;5.70;;;11.20;1.00;;;;;;5026611;28;20837;-82
2023/10/02 02:29:26;;;;;;;36.10;9.10;;;11.10;1.00;;;;;;5030291;28;20439;-81
2023/10/02 02:31:56;;;;;;;18.83;6.63;;;11.10;1.00;;;;;;5025747;28;20833;-83
2023/10/02 02:34:38;;;;;;;12.30;5.60;;;11.40;1.00;;;;;;5002622;28;20454;-82
2023/10/02 02:37:06;;;;;;;12.70;6.30;;;11.00;1.00;;;;;;5002063;28;20390;-82
2023/10/02 02:39:37;;;;;;;17.83;6.90;;;11.00;1.00;;;;;;5023453;28;20458;-82
2023/10/02 02:42:22;;;;;;;16.23;7.33;;;11.00;1.00;;;;;;5010762;28;20423;-82
2023/10/02 02:44:50;;;;;;;15.00;5.97;;;11.00;1.00;;;;;;5027915;28;20802;-82
2023/10/02 02:47:23;;;;;;;18.20;6.90;;;11.10;1.00;;;;;;5012028;28;20472;-82
2023/10/02 02:49:52;;;;;;;17.77;6.57;;;11.10;1.00;;;;;;5008151;28;20490;-82
2023/10/02 02:52:27;;;;;;;15.53;6.20;;;11.00;1.00;;;;;;5005714;28;20435;-82
2023/10/02 02:55:22;;;;;;;17.90;8.30;;;11.00;1.00;;;;;;5006347;28;20906;-82
2023/10/02 02:57:50;;;;;;;18.40;7.63;;;11.00;1.00;;;;;;4995686;28;20911;-83
2023/10/02 03:00:35;;;;;;;15.33;7.10;;;11.00;1.00;;;;;;5011064;28;21002;-83
2023/10/02 03:03:03;;;;;;;16.17;7.27;;;11.00;1.00;;;;;;5029414;28;20421;-83
2023/10/02 03:05:40;;;;;;;22.67;7.90;;;11.00;1.00;;;;;;5008020;28;20566;-83
2023/10/02 03:08:08;;;;;;;15.63;7.23;;;11.00;1.00;;;;;;5009843;28;20451;-82
2023/10/02 03:10:46;;;;;;;11.37;7.03;;;11.50;1.00;;;;;;5015991;28;20455;-82
2023/10/02 03:13:17;;;;;;;14.53;7.20;;;11.10;1.00;;;;;;5018895;28;20438;-81
2023/10/02 03:15:48;;;;;;;23.30;8.17;;;11.00;1.00;;;;;;5023192;28;20762;-81
2023/10/02 03:19:08;;;;;;;20.97;8.47;;;11.00;1.00;;;;;;5020426;28;20432;-82
2023/10/02 03:21:47;;;;;;;19.83;8.10;;;11.10;1.00;;;;;;5013187;28;20485;-82
2023/10/02 03:24:21;;;;;;;18.77;6.73;;;11.00;1.00;;;;;;5031000;28;20756;-83
2023/10/02 03:26:52;;;;;;;14.20;7.70;;;11.00;1.00;;;;;;5024607;28;20467;-82
2023/10/02 03:29:32;;;;;;;20.40;7.00;;;11.00;1.00;;;;;;5007700;28;20478;-82
2023/10/02 03:35:39;;;;;;;11.37;6.27;;;10.90;1.00;;;;;;5006622;28;20946;-83
2023/10/02 03:38:05;;;;;;;16.43;6.90;;;10.90;1.00;;;;;;5005972;28;20439;-82
2023/10/02 03:40:32;;;;;;;27.83;8.57;;;10.90;1.00;;;;;;5015731;28;20396;-81
2023/10/02 03:43:18;;;;;;;13.13;5.83;;;10.80;1.00;;;;;;5024511;28;20654;-82
2023/10/02 03:45:46;;;;;;;15.60;6.80;;;10.80;1.00;;;;;;5033947;28;20900;-81
2023/10/02 03:48:15;;;;;;;19.90;6.97;;;10.80;1.00;;;;;;5031651;28;20859;-82
2023/10/02 03:50:44;;;;;;;29.63;7.00;;;10.80;1.00;;;;;;5023602;28;20446;-81
2023/10/02 03:53:28;;;;;;;12.03;5.70;;;10.90;1.00;;;;;;5015343;28;20398;-81
2023/10/02 03:58:56;;;;;;;19.57;6.90;;;10.80;1.00;;;;;;5009749;28;20424;-82
2023/10/02 04:01:40;;;;;;;19.53;6.10;;;10.80;1.00;;;;;;5013507;28;20415;-82
2023/10/02 04:06:37;;;;;;;19.27;7.37;;;10.80;1.00;;;;;;5011165;28;20554;-83
2023/10/02 04:11:42;;;;;;;17.13;6.47;;;10.70;1.00;;;;;;5026185;28;20864;-83
2023/10/02 04:14:32;;;;;;;28.40;8.70;;;10.80;1.00;;;;;;5018936;28;20425;-83
2023/10/02 04:20:38;;;;;;;19.80;6.37;;;10.70;1.00;;;;;;5009337;28;20415;-83
2023/10/02 04:23:52;;;;;;;12.43;5.63;;;10.70;1.00;;;;;;5010439;28;20505;-83
2023/10/02 04:27:14;;;;;;;13.93;6.07;;;10.70;1.00;;;;;;5011511;28;20455;-82
2023/10/02 04:36:34;;;;;;;13.47;6.03;;;10.60;1.00;;;;;;5005349;28;20967;-90
2023/10/02 04:39:04;;;;;;;18.13;7.43;;;10.60;1.00;;;;;;5011843;28;20490;-90
2023/10/02 04:42:09;;;;;;;23.03;7.73;;;10.70;1.00;;;;;;5013815;28;20459;-90
2023/10/02 04:44:25;;;;;;;11.30;5.67;;;10.50;1.00;;;;;;5015137;28;20779;-90
2023/10/02 04:47:30;;;;;;;11.03;5.97;;;10.50;1.00;;;;;;5022936;28;20461;-90
2023/10/02 04:50:34;;;;;;;18.37;7.23;;;;;;;;;;5015031;28;20848;-90
2023/10/02 04:55:44;;;;;;;16.83;6.20;;;10.40;1.00;;;;;;5007580;28;20953;-90
2023/10/02 04:58:17;;;;;;;23.20;6.97;;;10.40;1.00;;;;;;5014528;28;20432;-90
2023/10/02 05:04:18;;;;;;;12.73;6.00;;;10.40;1.00;;;;;;5010366;28;20419;-90
2023/10/02 05:06:44;;;;;;;22.37;6.27;;;10.40;1.00;;;;;;5018879;28;20551;-89
2023/10/02 05:09:26;;;;;;;14.97;6.37;;;10.40;1.00;;;;;;5017191;28;20631;-90
2023/10/02 05:16:06;;;;;;;20.57;7.40;;;10.30;1.00;;;;;;5012280;28;20402;-91
2023/10/02 05:19:08;;;;;;;20.97;8.20;;;10.30;1.00;;;;;;5014171;28;20419;-90
2023/10/02 05:25:18;;;;;;;22.50;7.50;;;10.30;1.00;;;;;;5009686;28;20411;-89
2023/10/02 05:28:05;;;;;;;14.73;6.23;;;10.30;1.00;;;;;;4997364;28;20456;-90
2023/10/02 05:30:43;;;;;;;14.60;5.70;;;10.20;1.00;;;;;;5013996;28;20517;-89
2023/10/02 05:33:36;;;;;;;16.93;6.50;;;10.20;1.00;;;;;;5014753;28;20441;-90
2023/10/02 05:36:09;;;;;;;14.73;6.33;;;10.30;1.00;;;;;;5006358;28;20754;-88
2023/10/02 05:38:36;;;;;;;17.33;6.40;;;10.20;1.00;;;;;;5024567;28;20434;-89
2023/10/02 05:41:51;;;;;;;14.50;6.40;;;10.40;1.00;;;;;;5008246;28;20491;-89
2023/10/02 05:44:27;;;;;;;15.73;6.50;;;10.30;1.00;;;;;;5027600;28;20436;-89
2023/10/02 05:47:04;;;;;;;12.47;5.67;;;10.30;1.00;;;;;;5012852;28;20458;-89
2023/10/02 05:49:53;;;;;;;16.63;5.80;;;10.40;1.00;;;;;;5013177;28;20406;-87
2023/10/02 05:53:03;;;;;;;23.23;7.97;;;10.40;1.00;;;;;;5000384;28;20501;-87
2023/10/02 05:55:57;;;;;;;21.33;7.20;;;10.40;1.00;;;;;;5012578;28;20525;-89
2023/10/02 06:01:46;;;;;;;16.77;7.37;;;10.50;1.00;;;;;;5024833;28;20548;-88
2023/10/02 06:04:23;;;;;;;19.13;7.27;;;10.50;1.00;;;;;;5027667;28;20941;-86
2023/10/02 06:06:51;;;;;;;12.93;7.70;;;11.20;1.00;;;;;;5012666;28;20486;-85
2023/10/02 06:10:00;;;;;;;19.37;7.73;;;10.60;1.00;;;;;;5011186;28;20483;-89
2023/10/02 06:12:27;;;;;;;17.53;7.20;;;10.60;1.00;;;;;;5010420;28;20408;-86
2023/10/02 06:18:02;;;;;;;11.83;6.10;;;10.80;1.00;;;;;;5014213;28;20410;-86
2023/10/02 06:20:32;;;;;;;14.33;7.10;;;10.90;1.00;;;;;;5017351;28;20413;-87
2023/10/02 06:23:22;;;;;;;17.60;7.17;;;11.00;1.00;;;;;;5021432;28;20394;-86
2023/10/02 06:26:46;;;;;;;23.07;7.40;;;11.10;1.00;;;;;;5017134;28;20432;-86
2023/10/02 06:29:22;;;;;;;12.43;6.17;;;11.10;1.00;;;;;;5004202;28;20439;-88
2023/10/02 06:32:20;;;;;;;15.00;6.47;;;12.20;1.00;;;;;;5005570;28;20431;-86
2023/10/02 06:34:47;;;;;;;21.27;8.13;;;11.30;1.00;;;;;;5015246;28;20470;-87
2023/10/02 06:37:16;;;;;;;15.37;6.67;;;11.40;1.00;;;;;;5019099;28;20542;-86
2023/10/02 06:40:32;;;;;;;15.80;6.20;;;11.40;1.00;;;;;;5008230;28;20455;-87
2023/10/02 06:43:28;;;;;;;18.53;6.83;;;11.60;1.00;;;;;;5031539;28;20858;-87
2023/10/02 06:46:07;;;;;;;13.53;6.70;;;11.70;1.00;;;;;;5007367;28;20491;-83
2023/10/02 06:48:56;;;;;;;16.20;7.30;;;11.80;1.00;;;;;;5015785;28;20811;-87
2023/10/02 06:54:56;;;;;;;14.00;6.10;;;12.00;1.00;;;;;;5007171;28;20435;-87
2023/10/02 06:58:02;;;;;;;19.17;7.00;;;12.10;1.00;;;;;;5016020;28;20781;-90
2023/10/02 07:03:26;;;;;;;12.70;6.77;;;12.40;1.00;;;;;;5015879;28;20434;-90
2023/10/02 07:05:52;;;;;;;19.00;7.47;;;12.50;1.00;;;;;;5015434;28;20467;-90
2023/10/02 07:11:45;;;;;;;13.70;6.17;;;12.70;1.00;;;;;;5017773;28;20192;-87
2023/10/02 07:18:12;;;;;;;12.80;5.80;;;12.90;1.00;;;;;;5011920;28;20411;-87
2023/10/02 07:20:52;;;;;;;15.47;6.30;;;13.00;1.00;;;;;;5016295;28;21029;-87
2023/10/02 07:26:51;;;;;;;13.13;6.70;;;13.50;1.00;;;;;;5017116;28;20450;-87
2023/10/02 07:29:37;;;;;;;26.87;9.90;;;13.50;1.00;;;;;;5031747;28;20959;-87
2023/10/02 07:32:44;;;;;;;35.43;10.13;;;13.70;1.00;;;;;;5015502;28;20977;-87
2023/10/02 07:35:21;;;;;;;10.57;6.67;;;13.90;1.00;;;;;;5031425;28;20401;-88
2023/10/02 07:38:14;;;;;;;25.13;11.10;;;14.00;1.00;;;;;;5015644;28;20481;-87
2023/10/02 07:44:07;;;;;;;26.10;10.77;;;14.40;1.00;;;;;;5003152;28;20458;-88
2023/10/02 07:49:59;;;;;;;27.27;12.10;;;14.90;1.00;;;;;;5015248;28;20437;-87
2023/10/02 08:05:56;;;;;;;28.87;12.20;;;15.40;1.00;;;;;;5015688;28;20390;-87
2023/10/02 08:11:51;;;;;;;28.40;12.80;;;15.90;1.00;;;;;;5016456;28;20428;-88
2023/10/02 08:21:04;;;;;;;35.10;13.70;;;16.00;1.00;;;;;;5018912;28;20395;-88
2023/10/02 08:24:14;;;;;;;25.17;11.17;;;16.10;1.00;;;;;;5011961;28;20458;-88
2023/10/02 08:27:20;;;;;;;28.13;11.40;;;16.10;1.00;;;;;;5003660;28;20555;-91
2023/10/02 08:29:45;;;;;;;27.53;12.17;;;16.20;1.00;;;;;;5014129;28;20424;-84
2023/10/02 08:35:46;;;;;;;30.53;12.10;;;16.30;1.00;;;;;;4995790;28;20571;-85
2023/10/02 08:42:11;;;;;;;26.97;11.83;;;16.60;1.00;;;;;;5009149;28;20970;-84
2023/10/02 08:52:08;;;;;;;26.57;11.87;;;17.10;1.00;;;;;;4994645;28;20489;-83
2023/10/02 08:55:33;;;;;;;28.07;11.60;;;17.30;1.00;;;;;;5009890;28;20942;-84
2023/10/02 08:58:15;;;;;;;28.43;11.17;;;17.50;1.00;;;;;;5021797;28;20487;-83
2023/10/02 09:01:06;;;;;;;31.93;12.13;;;17.60;1.00;;;;;;5017526;28;20442;-84
2023/10/02 09:03:42;;;;;;;34.03;11.87;;;17.80;1.00;;;;;;5012360;28;20443;-84
2023/10/02 09:09:17;;;;;;;29.23;11.43;;;17.90;1.00;;;;;;5009357;28;20441;-84
2023/10/02 09:12:48;;;;;;;26.60;15.03;;;18.00;1.00;;;;;;5021569;28;20421;-83
2023/10/02 09:25:09;;;;;;;21.83;8.77;;;18.50;1.00;;;;;;5014088;28;20410;-83
2023/10/02 09:28:26;;;;;;;20.07;8.70;;;18.60;1.00;;;;;;5013338;28;20517;-84
2023/10/02 09:31:14;;;;;;;19.70;8.40;;;18.90;1.00;;;;;;5012848;28;20573;-84
2023/10/02 09:33:38;;;;;;;19.07;8.93;;;18.90;1.00;;;;;;5013980;28;20449;-88
2023/10/02 09:36:36;;;;;;;22.07;9.33;;;18.90;1.00;;;;;;5009015;28;20575;-85
2023/10/02 09:42:10;;;;;;;19.30;9.40;;;19.10;1.00;;;;;;5013938;28;20499;-85
2023/10/02 09:47:50;;;;;;;23.37;9.50;;;19.40;1.00;;;;;;5008320;28;20529;-86
2023/10/02 09:50:26;;;;;;;20.60;8.70;;;19.40;1.00;;;;;;5009984;28;20440;-83
2023/10/02 09:53:15;;;;;;;20.77;8.33;;;19.60;1.00;;;;;;5013746;28;20448;-84
2023/10/02 09:59:22;;;;;;;26.77;8.67;;;19.80;1.00;;;;;;4994138;28;20397;-85
2023/10/02 10:13:51;;;;;;;20.10;8.63;;;20.50;1.00;;;;;;5017741;28;20405;-83
2023/10/02 10:16:29;;;;;;;22.00;9.17;;;20.60;1.00;;;;;;5017515;28;20426;-86
2023/10/02 10:19:44;;;;;;;26.00;8.60;;;20.70;1.00;;;;;;5026483;28;20434;-84
2023/10/02 10:22:56;;;;;;;29.00;10.00;;;20.70;1.00;;;;;;5023608;28;20918;-85
2023/10/02 10:28:53;;;;;;;27.60;8.77;;;;;;;;;;5016554;28;20535;-82
2023/10/02 10:32:05;;;;;;;16.93;7.60;;;20.90;1.00;;;;;;5010438;28;20646;-82
2023/10/02 10:35:11;;;;;;;29.90;8.40;;;21.10;1.00;;;;;;5012750;28;20925;-82
2023/10/02 10:37:55;;;;;;;18.63;7.97;;;21.20;1.00;;;;;;5011462;28;20429;-82
2023/10/02 10:41:09;;;;;;;21.60;8.30;;;21.30;1.00;;;;;;5023176;28;20913;-82
2023/10/02 10:44:20;;;;;;;26.33;8.60;;;21.50;1.00;;;;;;5011658;28;20454;-83
2023/10/02 10:47:14;;;;;;;37.33;10.20;;;21.50;1.00;;;;;;5007498;28;20451;-82
2023/10/02 10:50:26;;;;;;;20.33;7.70;;;21.50;1.00;;;;;;5020368;28;20427;-81
2023/10/02 10:53:26;;;;;;;15.60;6.63;;;21.70;1.00;;;;;;5016759;28;20823;-83
2023/10/02 10:56:17;;;;;;;21.80;8.20;;;21.80;1.00;;;;;;5022815;28;20507;-82
2023/10/02 10:59:10;;;;;;;25.77;7.97;;;22.00;1.00;;;;;;5008339;28;20423;-82
2023/10/02 11:02:18;;;;;;;36.03;9.93;;;22.10;1.00;;;;;;5012609;28;20443;-82
2023/10/02 11:04:52;;;;;;;23.83;8.87;;;22.30;1.00;;;;;;5017479;28;20786;-83
2023/10/02 11:07:25;;;;;;;27.10;8.80;;;22.50;1.00;;;;;;5020534;28;21081;-83
2023/10/02 11:10:15;;;;;;;24.67;7.83;;;22.50;1.00;;;;;;5011678;28;20442;-82
2023/10/02 11:16:08;;;;;;;28.93;8.93;;;22.70;1.00;;;;;;5020426;28;20784;-81
2023/10/02 11:19:21;;;;;;;17.23;7.43;;;22.70;1.00;;;;;;5015700;28;20465;-81
2023/10/02 11:22:14;;;;;;;13.30;6.50;;;22.80;1.00;;;;;;5002463;28;20464;-81
2023/10/02 11:25:02;;;;;;;23.90;7.87;;;23.00;1.00;;;;;;4990697;28;20448;-80
2023/10/02 11:27:34;;;;;;;15.93;6.70;;;23.10;1.00;;;;;;4986855;28;20462;-81
2023/10/02 11:30:07;;;;;;;20.27;7.13;;;23.10;1.00;;;;;;4997193;28;20448;-81
2023/10/02 11:33:07;;;;;;;27.07;8.40;;;23.20;1.00;;;;;;4976281;28;20570;-80
2023/10/02 11:35:38;;;;;;;17.50;6.10;;;23.30;1.00;;;;;;4993244;28;20471;-80
2023/10/02 11:38:26;;;;;;;38.10;20.57;;;23.50;1.00;;;;;;4993152;28;20455;-79
2023/10/02 11:41:09;;;;;;;32.30;10.07;;;23.60;1.00;;;;;;4985144;28;20497;-79
2023/10/02 11:43:44;;;;;;;16.07;6.97;;;23.80;1.00;;;;;;4982085;28;20509;-80
2023/10/02 11:46:56;;;;;;;22.13;7.70;;;24.00;1.00;;;;;;4993591;28;20456;-89
2023/10/02 11:49:29;;;;;;;16.17;6.83;;;24.10;1.00;;;;;;4993862;28;20446;-89
2023/10/02 11:52:20;;;;;;;16.53;6.40;;;24.10;1.00;;;;;;4994677;28;20474;-86
2023/10/02 11:55:09;;;;;;;19.53;6.33;;;24.30;1.00;;;;;;4997261;28;20423;-85
2023/10/02 11:58:00;;;;;;;18.43;6.53;;;24.40;1.00;;;;;;5013917;28;20481;-86
2023/10/02 12:00:26;;;;;;;21.63;6.93;;;24.50;1.00;;;;;;5016775;28;20438;-86
2023/10/02 12:03:08;;;;;;;18.90;6.70;;;24.60;1.00;;;;;;5010510;28;20422;-86
2023/10/02 12:05:50;;;;;;;15.07;6.30;;;24.60;1.00;;;;;;5012440;28;20202;-92
2023/10/02 12:08:44;;;;;;;14.47;6.53;;;24.80;1.00;;;;;;5011046;28;20817;-88
2023/10/02 12:11:24;;;;;;;16.60;6.60;;;24.80;1.00;;;;;;5016705;28;20937;-90
2023/10/02 12:14:08;;;;;;;16.23;6.40;;;25.00;1.00;;;;;;5023129;28;20940;-87
2023/10/02 12:17:02;;;;;;;17.97;6.47;;;25.00;1.00;;;;;;5027120;28;20510;-90
2023/10/02 12:20:22;;;;;;;20.83;6.30;;;25.30;1.00;;;;;;5026173;28;20430;-90
2023/10/02 12:23:28;;;;;;;17.30;5.70;;;25.40;1.00;;;;;;5008521;28;20439;-87
2023/10/02 12:29:16;;;;;;;13.47;6.13;;;25.70;1.00;;;;;;5026073;28;20449;-87
2023/10/02 12:32:23;;;;;;;14.27;6.50;;;25.60;1.00;;;;;;5013967;28;20434;-88
2023/10/02 12:38:13;;;;;;;16.30;7.43;;;25.80;1.00;;;;;;5008162;28;20549;-88
2023/10/02 12:40:46;;;;;;;18.67;6.50;;;25.90;1.00;;;;;;5013794;28;20434;-89
2023/10/02 12:43:16;;;;;;;16.73;6.47;;;26.00;1.00;;;;;;5015353;28;20439;-89
2023/10/02 12:46:15;;;;;;;16.03;7.10;;;25.90;1.00;;;;;;5034211;28;20424;-89
2023/10/02 12:49:14;;;;;;;21.33;7.23;;;25.80;1.00;;;;;;5030840;28;20435;-88
2023/10/02 12:52:02;;;;;;;17.20;7.53;;;25.80;1.00;;;;;;5011999;28;20425;-89
2023/10/02 12:54:32;;;;;;;13.07;6.17;;;25.50;1.00;;;;;;5014813;28;20405;-88
2023/10/02 12:57:02;;;;;;;20.17;7.23;;;25.40;1.00;;;;;;5025131;28;20854;-89
2023/10/02 12:59:38;;;;;;;19.10;7.40;;;25.60;1.00;;;;;;5009075;28;20420;-88
2023/10/02 13:02:08;;;;;;;23.70;8.03;;;25.50;1.00;;;;;;5033513;28;20415;-91
2023/10/02 13:04:59;;;;;;;18.80;7.90;;;25.50;1.00;;;;;;5012820;28;20440;-87
2023/10/02 13:14:39;;;;;;;18.63;7.50;;;25.90;1.00;;;;;;5000731;28;20977;-87
2023/10/02 13:24:15;;;;;;;21.97;8.07;;;25.90;1.00;;;;;;5014605;28;20597;-89
2023/10/02 13:30:26;;;;;;;21.77;8.37;;;26.10;1.00;;;;;;5014417;28;20450;-88
2023/10/02 13:33:09;;;;;;;36.63;8.20;;;26.00;1.00;;;;;;5013163;28;20468;-88
2023/10/02 13:35:57;;;;;;;22.50;7.47;;;26.30;1.00;;;;;;4993673;28;20496;-88
2023/10/02 13:38:27;;;;;;;18.23;7.33;;;26.40;1.00;;;;;;5048206;28;20862;-88
2023/10/02 13:41:14;;;;;;;18.37;7.10;;;26.40;1.00;;;;;;5003093;28;20437;-88
2023/10/02 13:47:44;;;;;;;22.33;7.67;;;26.60;1.00;;;;;;5014412;28;20897;-89
2023/10/02 13:50:26;;;;;;;17.93;7.93;;;26.70;1.00;;;;;;5020777;28;20504;-89
2023/10/02 13:53:14;;;;;;;16.50;7.30;;;26.70;1.00;;;;;;5013192;28;20413;-89
2023/10/02 13:55:50;;;;;;;22.83;8.40;;;26.70;1.00;;;;;;5018396;28;20432;-89
2023/10/02 13:58:17;;;;;;;18.70;8.03;;;26.90;1.00;;;;;;5023967;28;20430;-89
2023/10/02 14:00:44;;;;;;;17.13;6.37;;;26.90;1.00;;;;;;5009247;28;20490;-89
2023/10/02 14:03:22;;;;;;;15.67;7.40;;;27.00;1.00;;;;;;5013134;28;20947;-90
2023/10/02 14:06:15;;;;;;;20.30;7.43;;;27.10;1.00;;;;;;5016760;28;20953;-88
2023/10/02 14:08:57;;;;;;;17.60;7.43;;;27.10;1.00;;;;;;5015328;28;21137;-90
2023/10/02 14:12:03;;;;;;;21.03;8.50;;;27.20;1.00;;;;;;5017719;28;20796;-88
2023/10/02 14:14:30;;;;;;;21.27;7.60;;;27.30;1.00;;;;;;5012247;28;20500;-88
2023/10/02 14:17:09;;;;;;;19.60;7.00;;;27.50;1.00;;;;;;5025788;28;20529;-89
2023/10/02 14:20:15;;;;;;;20.30;7.67;;;27.60;1.00;;;;;;5012120;28;20506;-90
2023/10/02 14:26:14;;;;;;;21.23;8.40;;;27.50;1.00;;;;;;5003085;28;20411;-88
2023/10/02 14:29:33;;;;;;;23.70;8.43;;;27.50;1.00;;;;;;5019177;28;20462;-89
2023/10/02 14:32:14;;;;;;;20.60;8.40;;;27.50;1.00;;;;;;5010167;28;20439;-88
2023/10/02 14:34:45;;;;;;;20.23;7.93;;;27.50;1.00;;;;;;5008216;28;20417;-88
2023/10/02 14:37:15;;;;;;;21.27;8.63;;;27.50;1.00;;;;;;5028663;28;20522;-88
2023/10/02 14:39:41;;;;;;;24.73;9.03;;;27.50;1.00;;;;;;5027007;28;20429;-86
2023/10/02 14:42:11;;;;;;;23.40;8.60;;;27.50;1.00;;;;;;5025295;28;20443;-86
2023/10/02 14:44:44;;;;;;;28.57;9.10;;;27.50;1.00;;;;;;5011325;28;20662;-87
2023/10/02 14:57:22;;;;;;;26.83;9.27;;;27.60;1.00;;;;;;4997364;28;20820;-86
2023/10/02 15:00:03;;;;;;;23.60;9.70;;;27.60;1.00;;;;;;5013868;28;20471;-86
2023/10/02 15:03:20;;;;;;;27.30;8.80;;;27.60;1.00;;;;;;5013045;28;20436;-86
2023/10/02 15:05:51;;;;;;;25.30;10.13;;;27.60;1.00;;;;;;5015631;28;20528;-86
2023/10/02 15:08:21;;;;;;;26.87;9.43;;;27.70;1.00;;;;;;5028589;28;20480;-87
2023/10/02 15:10:51;;;;;;;22.33;8.80;;;27.60;1.00;;;;;;5016095;28;20879;-88
2023/10/02 15:13:22;;;;;;;27.60;9.40;;;27.60;1.00;;;;;;5016332;28;20429;-89
2023/10/02 15:15:57;;;;;;;21.70;9.03;;;27.70;1.00;;;;;;5017574;28;20407;-91
2023/10/02 15:18:39;;;;;;;30.03;10.07;;;27.70;1.00;;;;;;5011268;28;20445;-87
2023/10/02 15:21:20;;;;;;;26.00;9.37;;;28.00;1.00;;;;;;5010300;28;20431;-87
2023/10/02 15:27:02;;;;;;;18.20;8.30;;;28.90;1.00;;;;;;5006109;28;20881;-86
2023/10/02 15:29:44;;;;;;;65.63;10.73;;;29.30;1.00;;;;;;5018777;28;20497;-86
2023/10/02 15:32:26;;;;;;;28.57;8.83;;;29.80;1.00;;;;;;5016496;28;20427;-88
2023/10/02 15:35:11;;;;;;;56.97;11.73;;;30.50;1.00;;;;;;5022778;28;20439;-88
2023/10/02 15:37:42;;;;;;;25.20;9.80;;;31.10;1.00;;;;;;5011031;28;20472;-87
2023/10/02 15:40:12;;;;;;;26.97;10.17;;;31.20;1.00;;;;;;5026114;28;20950;-86
2023/10/02 15:42:38;;;;;;;25.10;9.40;;;31.10;1.00;;;;;;5018121;28;20451;-89
2023/10/02 15:45:32;;;;;;;29.20;9.70;;;31.00;1.00;;;;;;5014793;28;20777;-89
2023/10/02 15:48:26;;;;;;;22.60;8.67;;;30.60;1.00;;;;;;5007890;28;20526;-86
2023/10/02 15:51:02;;;;;;;22.90;9.00;;;30.30;1.00;;;;;;5020627;28;20941;-90
2023/10/02 15:53:28;;;;;;;22.30;9.43;;;29.80;1.00;;;;;;5016264;28;20447;-91
2023/10/02 15:55:56;;;;;;;22.57;8.90;;;29.50;1.00;;;;;;5012960;28;20424;-87
2023/10/02 16:01:44;;;;;;;30.70;10.43;;;29.00;1.00;;;;;;5026292;28;20421;-87
2023/10/02 16:04:32;;;;;;;21.70;9.20;;;28.60;1.00;;;;;;5011913;28;20446;-89
2023/10/02 16:07:10;;;;;;;23.87;8.70;;;;;;;;;;5010325;28;20462;-90
2023/10/02 16:09:39;;;;;;;21.17;9.00;;;;;;;;;;5024109;28;20432;-91
2023/10/02 16:12:05;;;;;;;21.63;8.83;;;27.60;1.00;;;;;;5020741;28;20832;-91
2023/10/02 16:14:44;;;;;;;20.20;9.80;;;27.30;1.00;;;;;;5020808;28;20438;-91
2023/10/02 16:17:14;;;;;;;20.60;8.87;;;26.90;1.00;;;;;;5008182;28;20810;-91
2023/10/02 16:19:40;;;;;;;25.73;10.20;;;26.70;1.00;;;;;;5019721;28;20873;-92
2023/10/02 16:22:27;;;;;;;26.60;10.10;;;26.30;1.00;;;;;;5011643;28;20465;-92
2023/10/02 16:24:57;;;;;;;31.90;10.60;;;26.00;1.00;;;;;;5012366;28;20196;-91
2023/10/02 16:27:22;;;;;;;29.23;10.43;;;25.60;1.00;;;;;;5012627;28;20468;-91
2023/10/02 16:30:03;;;;;;;27.60;10.00;;;25.30;1.00;;;;;;5013282;28;20456;-91
2023/10/02 16:32:29;;;;;;;25.90;9.53;;;24.80;1.00;;;;;;5010271;28;20215;-90
2023/10/02 16:35:05;;;;;;;26.03;9.80;;;24.60;1.00;;;;;;5022997;28;20957;-90
2023/10/02 16:37:32;;;;;;;21.80;8.47;;;24.10;1.00;;;;;;5011375;28;20445;-89
2023/10/02 16:40:21;;;;;;;30.00;9.90;;;24.00;1.00;;;;;;5019506;28;20519;-87
2023/10/02 16:43:38;;;;;;;33.43;10.27;;;23.70;1.00;;;;;;5005635;28;20453;-88
2023/10/02 16:46:21;;;;;;;25.00;9.30;;;23.40;1.00;;;;;;5009247;28;20538;-86
2023/10/02 16:49:14;;;;;;;30.57;10.30;;;23.00;1.00;;;;;;5027533;28;20476;-87
2023/10/02 16:52:03;;;;;;;29.00;9.93;;;22.70;1.00;;;;;;5023746;28;20467;-86
2023/10/02 16:54:33;;;;;;;34.70;10.60;;;22.40;1.00;;;;;;5013108;28;20419;-85
2023/10/02 16:56:58;;;;;;;23.80;9.80;;;22.10;1.00;;;;;;5010131;28;20444;-86
2023/10/02 16:59:33;;;;;;;30.97;10.63;;;;;;;;;;5015629;28;20436;-86
2023/10/02 17:05:28;;;;;;;24.57;9.37;;;21.40;1.00;;;;;;5014434;28;20435;-83
2023/10/02 17:07:58;;;;;;;25.00;9.63;;;21.10;1.00;;;;;;5015842;28;20545;-83
2023/10/02 17:11:15;;;;;;;29.67;10.30;;;20.90;1.00;;;;;;5028430;28;20472;-83
2023/10/02 17:13:41;;;;;;;29.20;10.07;;;20.70;1.00;;;;;;5019101;28;20458;-86
2023/10/02 17:16:08;;;;;;;38.33;10.50;;;20.40;1.00;;;;;;5012563;28;20797;-87
2023/10/02 17:18:51;;;;;;;32.23;10.40;;;20.20;1.00;;;;;;5013485;28;20502;-89
2023/10/02 17:21:17;;;;;;;33.27;10.97;;;20.00;1.00;;;;;;5011566;28;20449;-89
2023/10/02 17:23:43;;;;;;;28.30;10.40;;;19.90;1.00;;;;;;5012416;28;20422;-88
2023/10/02 17:26:57;;;;;;;27.90;10.50;;;19.70;1.00;;;;;;5007528;28;20461;-87
2023/10/02 17:29:22;;;;;;;39.90;11.63;;;19.50;1.00;;;;;;5010114;28;20441;-86